Red Bluff Municipal Airport Red Bluff US
ICAO: KRBL
IATA: RBL
Category: Medium
Scheduled Services: No

Elevation: 352 ft
TransAlt. 18000 ft.

Airport Communications:
ASOS:120.775
OAKLAND CNTR:132.2
RANCHO RDO:122.4
CTAF/UNICOM:123

KRBL Zoom In..

If you have problems with the map follow the link
https://www.worldairports.se/pages/airport.php?
ICAO=KRBL

Runways:

(A) RW 15 length 5431 ft width 100 ft
---- / hdg 151

(B) RW 33 length 5431 ft width 100 ft
---- / hdg 331

Location; KRBL
Day. 17 / Time. 22.23 Zulu
* Altimeter: 30.34
* Temperature: 09° c. 48.2°f.
* Wind from: 090° Speed 03 kn.
Dewpoint: 04° c.
Visibility: 10 Statute Miles.
Clouds: Scattered 1700 ft.

KRBL 172223Z AUTO 09003KT 10SM SCT017 09/04 A3034 RMK AO2 T00890044


Wind From 090°
Speed 03 kn.

 
 
jpsmedia worldairports.se 2020   terms of use